createdAt,value
2023-05-05T00:01:10.683Z,94.03
2023-05-05T00:03:38.700Z,94.91
2023-05-05T00:06:05.808Z,95.09
2023-05-05T00:08:32.435Z,95.31
2023-05-05T00:10:58.986Z,96.64
2023-05-05T00:13:28.452Z,96.88
2023-05-05T00:15:55.059Z,97.04
2023-05-05T00:18:21.638Z,96.44
2023-05-05T00:20:49.560Z,97.31
2023-05-05T00:23:16.730Z,97.28
2023-05-05T00:25:43.507Z,97.20
2023-05-05T00:28:10.446Z,97.18
2023-05-05T00:30:37.122Z,96.72
2023-05-05T00:33:04.297Z,96.59
2023-05-05T00:35:31.041Z,97.23
2023-05-05T00:37:58.971Z,96.66
2023-05-05T00:40:25.635Z,96.84
2023-05-05T00:42:52.551Z,96.77
2023-05-05T00:45:20.407Z,96.62
2023-05-05T00:47:48.939Z,96.27
2023-05-05T00:50:22.171Z,97.35
2023-05-05T00:52:49.318Z,97.58
2023-05-05T00:55:17.752Z,97.37
2023-05-05T00:57:45.053Z,96.91
2023-05-05T01:00:12.314Z,97.81
2023-05-05T01:02:39.543Z,97.60
2023-05-05T01:05:07.524Z,97.51
2023-05-05T01:07:44.674Z,97.93
2023-05-05T01:10:20.899Z,97.70
2023-05-05T01:12:58.419Z,98.17
2023-05-05T01:15:33.281Z,97.89
2023-05-05T01:18:17.374Z,98.24
2023-05-05T01:20:53.245Z,98.25
2023-05-05T01:23:43.345Z,98.57
2023-05-05T01:26:24.669Z,98.83
2023-05-05T01:29:13.482Z,99.27
2023-05-05T01:31:48.043Z,99.08
2023-05-05T01:34:19.181Z,99.78
2023-05-05T01:36:52.803Z,98.46
2023-05-05T01:39:21.080Z,99.71
2023-05-05T01:41:50.341Z,99.44
2023-05-05T01:44:17.946Z,99.94
2023-05-05T01:46:47.362Z,99.92
2023-05-05T01:49:15.520Z,100.00
2023-05-05T01:51:43.266Z,100.00
2023-05-05T01:54:10.330Z,100.00
2023-05-05T01:56:39.927Z,100.00
2023-05-05T01:59:07.481Z,100.00
2023-05-05T02:01:37.626Z,100.00
2023-05-05T02:04:07.776Z,100.00
2023-05-05T02:06:35.589Z,100.00
2023-05-05T02:09:03.122Z,100.00
2023-05-05T02:11:30.088Z,100.00
2023-05-05T02:13:58.824Z,100.00
2023-05-05T02:16:26.162Z,100.00
2023-05-05T02:18:54.651Z,100.00
2023-05-05T02:21:22.580Z,100.00
2023-05-05T02:23:49.282Z,100.00
2023-05-05T02:26:17.332Z,100.00
2023-05-05T02:28:48.785Z,100.00
2023-05-05T02:31:17.515Z,99.79
2023-05-05T02:33:46.872Z,99.73
2023-05-05T02:36:19.092Z,99.20
2023-05-05T02:38:48.638Z,98.40
2023-05-05T02:41:19.851Z,98.51
2023-05-05T02:43:49.332Z,98.47
2023-05-05T02:46:16.018Z,98.16
2023-05-05T02:48:42.551Z,98.01
2023-05-05T02:51:09.172Z,98.40
2023-05-05T02:53:36.028Z,98.69
2023-05-05T02:56:34.967Z,99.46
2023-05-05T03:02:27.621Z,100.00
2023-05-05T03:05:00.500Z,100.00
2023-05-05T03:07:32.409Z,99.92
2023-05-05T03:10:06.596Z,100.00
2023-05-05T03:12:39.805Z,100.00
2023-05-05T03:15:10.396Z,100.00
2023-05-05T03:17:38.252Z,100.00
2023-05-05T03:20:06.850Z,100.00
2023-05-05T03:22:35.570Z,100.00
2023-05-05T03:25:02.370Z,100.00
2023-05-05T03:27:29.160Z,100.00
2023-05-05T03:29:57.185Z,100.00
2023-05-05T03:32:24.170Z,100.00
2023-05-05T03:34:50.934Z,100.00
2023-05-05T03:37:17.476Z,100.00
2023-05-05T03:39:44.156Z,100.00
2023-05-05T03:42:10.701Z,100.00
2023-05-05T03:44:37.275Z,100.00
2023-05-05T03:47:05.619Z,100.00
2023-05-05T03:49:32.224Z,100.00
2023-05-05T03:51:58.858Z,100.00
2023-05-05T03:54:25.438Z,100.00
2023-05-05T03:56:52.106Z,100.00
2023-05-05T03:59:18.662Z,100.00
2023-05-05T04:01:45.371Z,100.00
2023-05-05T04:04:13.359Z,100.00
2023-05-05T04:06:39.938Z,100.00
2023-05-05T04:09:06.501Z,100.00
2023-05-05T04:11:33.073Z,100.00
2023-05-05T04:13:59.615Z,100.00
2023-05-05T04:16:26.277Z,100.00
2023-05-05T04:18:52.986Z,100.00
2023-05-05T04:21:20.870Z,100.00
2023-05-05T04:23:47.816Z,100.00
2023-05-05T04:26:14.378Z,100.00
2023-05-05T04:28:41.067Z,100.00
2023-05-05T04:31:07.603Z,100.00
2023-05-05T04:33:34.309Z,100.00
2023-05-05T04:36:00.848Z,100.00
2023-05-05T04:38:28.904Z,100.00
2023-05-05T04:40:55.522Z,100.00
2023-05-05T04:43:22.199Z,100.00
2023-05-05T04:45:55.203Z,100.00
2023-05-05T04:48:21.788Z,100.00
2023-05-05T04:50:48.488Z,100.00
2023-05-05T04:53:15.008Z,100.00
2023-05-05T04:55:43.007Z,100.00
2023-05-05T04:58:09.587Z,100.00
2023-05-05T05:00:36.465Z,100.00
2023-05-05T05:03:03.820Z,100.00
2023-05-05T05:05:30.621Z,100.00
2023-05-05T05:07:57.158Z,100.00
2023-05-05T05:10:23.744Z,100.00
2023-05-05T05:12:51.957Z,100.00
2023-05-05T05:15:18.551Z,100.00
2023-05-05T05:17:45.177Z,97.44
2023-05-05T05:20:12.003Z,97.60
2023-05-05T05:22:38.594Z,96.29
2023-05-05T05:25:05.929Z,95.36
2023-05-05T05:27:32.526Z,93.88
2023-05-05T05:30:00.632Z,94.16
2023-05-05T05:32:27.179Z,93.08
2023-05-05T05:34:53.721Z,92.11
2023-05-05T05:37:20.343Z,92.29
2023-05-05T05:39:51.654Z,91.07
2023-05-05T05:42:18.219Z,90.81
2023-05-05T05:44:44.756Z,90.56
2023-05-05T05:47:12.677Z,89.51
2023-05-05T05:49:39.190Z,89.08
2023-05-05T05:52:05.706Z,89.34
2023-05-05T05:54:32.398Z,90.68
2023-05-05T05:56:58.922Z,89.86
2023-05-05T05:59:25.460Z,89.41
2023-05-05T06:01:52.069Z,89.64
2023-05-05T06:04:20.196Z,89.25
2023-05-05T06:06:46.787Z,88.21
2023-05-05T06:09:13.362Z,86.89
2023-05-05T06:11:39.950Z,87.28
2023-05-05T06:14:06.653Z,87.42
2023-05-05T06:16:33.381Z,86.49
2023-05-05T06:19:00.137Z,83.88
2023-05-05T06:21:28.153Z,83.94
2023-05-05T06:23:54.721Z,83.97
2023-05-05T06:26:21.298Z,83.03
2023-05-05T06:28:47.831Z,82.77
2023-05-05T06:31:14.386Z,81.79
2023-05-05T06:33:41.327Z,79.64
2023-05-05T06:36:08.455Z,76.77
2023-05-05T06:38:36.594Z,75.29
2023-05-05T06:41:03.533Z,72.78
2023-05-05T06:43:30.119Z,72.07
2023-05-05T06:45:58.442Z,70.91
2023-05-05T06:48:25.087Z,72.28
2023-05-05T06:50:51.632Z,74.92
2023-05-05T06:53:18.254Z,73.17
2023-05-05T06:55:47.451Z,74.92
2023-05-05T06:58:14.013Z,75.16
2023-05-05T07:00:40.940Z,73.89
2023-05-05T07:03:07.707Z,72.63
2023-05-05T07:05:34.355Z,72.70
2023-05-05T07:08:00.911Z,71.63
2023-05-05T07:10:27.933Z,72.00
2023-05-05T07:12:56.006Z,73.20
2023-05-05T07:15:28.866Z,72.51
2023-05-05T07:17:56.049Z,68.03
2023-05-05T07:20:22.635Z,67.98
2023-05-05T07:22:49.176Z,69.04
2023-05-05T07:25:15.784Z,63.77
2023-05-05T07:27:42.412Z,63.79
2023-05-05T07:30:14.252Z,64.79
2023-05-05T07:32:43.222Z,61.08
2023-05-05T07:35:10.316Z,60.14
2023-05-05T07:37:36.910Z,61.25
2023-05-05T07:40:04.025Z,61.51
2023-05-05T07:42:30.617Z,60.65
2023-05-05T07:44:57.115Z,61.12
2023-05-05T07:47:25.215Z,58.65
2023-05-05T07:49:51.749Z,59.58
2023-05-05T07:52:18.477Z,60.16
2023-05-05T07:54:45.082Z,59.18
2023-05-05T07:57:11.723Z,59.09
2023-05-05T07:59:38.252Z,58.65
2023-05-05T08:02:04.788Z,58.94
2023-05-05T08:04:32.781Z,59.00
2023-05-05T08:06:59.382Z,58.93
2023-05-05T08:09:25.985Z,57.77
2023-05-05T08:11:52.517Z,59.74
2023-05-05T08:14:27.214Z,61.03
2023-05-05T08:16:53.757Z,59.13
2023-05-05T08:19:28.861Z,55.77
2023-05-05T08:21:58.829Z,56.08
2023-05-05T08:24:26.653Z,56.72
2023-05-05T08:26:53.189Z,56.34
2023-05-05T08:29:19.927Z,55.38
2023-05-05T08:31:46.572Z,54.84
2023-05-05T08:34:13.214Z,53.82
2023-05-05T08:36:39.789Z,53.18
2023-05-05T08:39:07.968Z,51.94
2023-05-05T08:41:35.808Z,52.67
2023-05-05T08:44:02.360Z,53.47
2023-05-05T08:46:29.886Z,51.34
2023-05-05T08:48:58.623Z,53.15
2023-05-05T08:51:29.521Z,50.86
2023-05-05T08:53:57.693Z,52.09
2023-05-05T08:56:31.989Z,54.11
2023-05-05T08:58:59.527Z,51.71
2023-05-05T09:01:26.254Z,53.50
2023-05-05T09:03:53.205Z,50.46
2023-05-05T09:06:20.759Z,49.89
2023-05-05T09:08:47.450Z,50.90
2023-05-05T09:11:14.506Z,50.93
2023-05-05T09:13:42.370Z,49.31
2023-05-05T09:16:09.193Z,50.24
2023-05-05T09:18:37.532Z,49.92
2023-05-05T09:21:18.947Z,50.68
2023-05-05T09:24:08.159Z,48.38
2023-05-05T09:26:36.999Z,49.05
2023-05-05T09:29:06.290Z,50.50
2023-05-05T09:31:34.259Z,46.84
2023-05-05T09:34:01.366Z,46.65
2023-05-05T09:36:47.613Z,47.48
2023-05-05T09:39:14.631Z,45.86
2023-05-05T09:41:42.686Z,46.42
2023-05-05T09:44:11.169Z,46.76
2023-05-05T09:46:38.104Z,46.26
2023-05-05T09:49:14.755Z,47.32
2023-05-05T09:51:41.417Z,48.10
2023-05-05T09:54:08.169Z,45.18
2023-05-05T09:56:38.831Z,49.92
2023-05-05T09:59:09.932Z,46.49
2023-05-05T10:01:36.594Z,46.71
2023-05-05T10:04:03.280Z,45.43
2023-05-05T10:06:44.463Z,43.90
2023-05-05T10:09:11.051Z,44.09
2023-05-05T10:11:38.616Z,45.84
2023-05-05T10:14:07.466Z,45.05
2023-05-05T10:16:35.885Z,46.67
2023-05-05T10:19:03.404Z,46.80
2023-05-05T10:21:33.877Z,49.04
2023-05-05T10:24:09.493Z,44.02
2023-05-05T10:26:41.042Z,46.33
2023-05-05T10:29:13.406Z,45.40
2023-05-05T10:31:45.347Z,45.02
2023-05-05T10:34:18.417Z,43.48
2023-05-05T10:36:45.505Z,44.64
2023-05-05T10:39:15.071Z,45.79
2023-05-05T10:41:42.422Z,44.16
2023-05-05T10:44:09.258Z,44.79
2023-05-05T10:46:36.450Z,47.02
2023-05-05T10:49:12.496Z,42.81
2023-05-05T10:51:46.905Z,42.61
2023-05-05T10:54:19.619Z,43.05
2023-05-05T10:56:47.123Z,41.42
2023-05-05T10:59:41.165Z,42.19
2023-05-05T11:02:25.397Z,43.65
2023-05-05T11:05:09.094Z,41.78
2023-05-05T11:07:36.056Z,42.99
2023-05-05T11:10:07.518Z,39.61
2023-05-05T11:13:15.744Z,40.26
2023-05-05T11:15:42.336Z,41.84
2023-05-05T11:18:29.430Z,40.96
2023-05-05T11:21:08.665Z,41.76
2023-05-05T11:23:35.225Z,41.61
2023-05-05T11:26:01.811Z,42.80
2023-05-05T11:28:29.955Z,40.48
2023-05-05T11:31:15.828Z,39.92
2023-05-05T11:33:42.475Z,43.52
2023-05-05T11:36:11.777Z,43.56
2023-05-05T11:38:48.423Z,46.17
2023-05-05T11:41:28.016Z,44.21
2023-05-05T11:44:08.787Z,44.19
2023-05-05T11:46:35.703Z,44.48
2023-05-05T11:49:02.527Z,40.25
2023-05-05T11:51:31.415Z,39.01
2023-05-05T11:53:59.144Z,37.83
2023-05-05T11:56:25.938Z,40.88
2023-05-05T11:59:09.084Z,39.54
2023-05-05T12:01:39.160Z,41.24
2023-05-05T12:04:05.813Z,40.21
2023-05-05T12:06:34.162Z,39.32
2023-05-05T12:09:01.254Z,38.58
2023-05-05T12:11:27.810Z,39.61
2023-05-05T12:14:15.082Z,39.09
2023-05-05T12:16:53.466Z,39.95
2023-05-05T12:19:20.165Z,42.12
2023-05-05T12:21:48.155Z,42.01
2023-05-05T12:24:15.254Z,44.29
2023-05-05T12:26:41.971Z,43.52
2023-05-05T12:29:08.555Z,44.60
2023-05-05T12:31:35.600Z,54.70
2023-05-05T12:34:06.058Z,57.10
2023-05-05T12:36:33.372Z,57.86
2023-05-05T12:39:01.521Z,59.39
2023-05-05T12:41:28.548Z,60.53
2023-05-05T12:43:55.923Z,60.91
2023-05-05T12:46:23.168Z,59.88
2023-05-05T12:49:00.228Z,60.44
2023-05-05T12:51:27.159Z,60.62
2023-05-05T12:54:04.182Z,60.34
2023-05-05T12:56:35.306Z,55.27
2023-05-05T12:59:03.836Z,55.48
2023-05-05T13:01:30.620Z,54.01
2023-05-05T13:04:08.876Z,53.30
2023-05-05T13:06:35.723Z,54.93
2023-05-05T13:09:03.754Z,52.50
2023-05-05T13:11:30.346Z,52.19
2023-05-05T13:13:56.896Z,52.29
2023-05-05T13:16:23.648Z,54.05
2023-05-05T13:18:50.776Z,52.47
2023-05-05T13:21:17.499Z,53.46
2023-05-05T13:23:44.402Z,53.75
2023-05-05T13:26:13.096Z,56.02
2023-05-05T13:28:40.076Z,57.04
2023-05-05T13:31:06.944Z,57.21
2023-05-05T13:33:34.495Z,58.68
2023-05-05T13:36:01.361Z,60.04
2023-05-05T13:38:28.068Z,61.35
2023-05-05T13:40:54.784Z,61.76
2023-05-05T13:43:22.813Z,62.85
2023-05-05T13:45:49.392Z,63.75
2023-05-05T13:48:15.926Z,62.97
2023-05-05T13:50:42.503Z,62.28
2023-05-05T13:53:09.026Z,61.32
2023-05-05T13:55:35.789Z,60.99
2023-05-05T13:58:02.349Z,60.49
2023-05-05T14:00:30.263Z,60.96
2023-05-05T14:02:56.970Z,57.69
2023-05-05T14:05:23.589Z,58.25
2023-05-05T14:07:50.164Z,53.63
2023-05-05T14:10:16.742Z,52.10
2023-05-05T14:12:43.330Z,54.40
2023-05-05T14:15:10.660Z,52.07
2023-05-05T14:17:38.862Z,49.53
2023-05-05T14:20:06.816Z,49.05
2023-05-05T14:22:33.623Z,45.30
2023-05-05T14:25:00.265Z,45.86
2023-05-05T14:27:26.969Z,44.93
2023-05-05T14:29:53.628Z,43.56
2023-05-05T14:32:20.280Z,43.96
2023-05-05T14:34:50.312Z,42.63
2023-05-05T14:37:21.963Z,43.91
2023-05-05T14:39:49.969Z,44.45
2023-05-05T14:42:16.511Z,45.62
2023-05-05T14:44:44.534Z,49.28
2023-05-05T14:47:13.960Z,49.25
2023-05-05T14:49:40.704Z,49.38
2023-05-05T14:52:11.141Z,49.46
2023-05-05T14:54:37.706Z,44.59
2023-05-05T14:57:04.610Z,47.12
2023-05-05T14:59:31.285Z,47.07
2023-05-05T15:01:57.994Z,45.01
2023-05-05T15:04:24.661Z,47.16
2023-05-05T15:06:51.606Z,47.46
2023-05-05T15:09:19.539Z,47.48
2023-05-05T15:11:46.243Z,49.98
2023-05-05T15:14:12.930Z,51.04
2023-05-05T15:16:39.604Z,54.81
2023-05-05T15:19:06.316Z,53.79
2023-05-05T15:21:35.717Z,53.58
2023-05-05T15:24:02.309Z,55.13
2023-05-05T15:26:31.368Z,59.15
2023-05-05T15:28:57.923Z,58.61
2023-05-05T15:31:24.602Z,59.92
2023-05-05T15:33:51.185Z,60.40
2023-05-05T15:36:17.873Z,62.89
2023-05-05T15:38:44.454Z,65.10
2023-05-05T15:41:11.184Z,64.04
2023-05-05T15:43:39.083Z,63.92
2023-05-05T15:46:05.890Z,62.89
2023-05-05T15:48:32.526Z,63.99
2023-05-05T15:50:59.122Z,64.53
2023-05-05T15:53:25.661Z,65.35
2023-05-05T15:55:52.331Z,65.47
2023-05-05T15:58:18.884Z,65.29
2023-05-05T16:00:46.768Z,65.50
2023-05-05T16:03:13.398Z,64.83
2023-05-05T16:05:39.945Z,64.33
2023-05-05T16:08:06.491Z,66.64
2023-05-05T16:10:33.050Z,65.68
2023-05-05T16:12:59.594Z,66.50
2023-05-05T16:15:26.137Z,67.36
2023-05-05T16:17:54.173Z,68.97
2023-05-05T16:20:22.200Z,70.97
2023-05-05T16:22:48.785Z,75.10
2023-05-05T16:25:18.016Z,78.57
2023-05-05T16:27:44.580Z,82.66
2023-05-05T16:30:12.256Z,86.30
2023-05-05T16:32:38.891Z,85.21
2023-05-05T16:35:07.552Z,93.71
2023-05-05T16:37:34.718Z,95.27
2023-05-05T16:40:01.304Z,89.96
2023-05-05T16:42:27.870Z,90.65
2023-05-05T16:44:54.413Z,96.84
2023-05-05T16:47:21.088Z,92.35
2023-05-05T16:49:47.652Z,92.96
2023-05-05T16:52:15.537Z,93.30
2023-05-05T16:54:42.186Z,94.01
2023-05-05T16:57:08.785Z,94.65
2023-05-05T16:59:35.376Z,93.43
2023-05-05T17:02:01.956Z,91.60
2023-05-05T17:04:28.482Z,92.25
2023-05-05T17:06:55.019Z,92.80
2023-05-05T17:09:22.903Z,91.75
2023-05-05T17:11:51.688Z,96.95
2023-05-05T17:14:18.224Z,98.25
2023-05-05T17:16:44.935Z,97.25
2023-05-05T17:19:14.417Z,93.41
2023-05-05T17:21:40.975Z,93.81
2023-05-05T17:24:08.349Z,95.29
2023-05-05T17:26:36.242Z,95.16
2023-05-05T17:29:02.861Z,92.74
2023-05-05T17:31:29.426Z,93.06
2023-05-05T17:33:56.064Z,96.09
2023-05-05T17:36:22.679Z,97.06
2023-05-05T17:38:49.283Z,95.90
2023-05-05T17:41:15.887Z,98.03
2023-05-05T17:43:43.785Z,97.86
2023-05-05T17:46:10.354Z,97.47
2023-05-05T17:48:36.962Z,99.71
2023-05-05T17:51:03.640Z,100.00
2023-05-05T17:53:30.249Z,97.64
2023-05-05T17:55:56.787Z,100.00
2023-05-05T17:58:23.445Z,95.34
2023-05-05T18:00:51.453Z,97.47
2023-05-05T18:03:18.354Z,97.96
2023-05-05T18:05:45.119Z,98.59
2023-05-05T18:08:11.665Z,97.10
2023-05-05T18:10:38.404Z,99.04
2023-05-05T18:13:05.054Z,100.00
2023-05-05T18:15:31.756Z,100.00
2023-05-05T18:17:59.752Z,100.00
2023-05-05T18:20:26.384Z,100.00
2023-05-05T18:22:53.127Z,100.00
2023-05-05T18:25:19.934Z,100.00
2023-05-05T18:27:46.466Z,100.00
2023-05-05T18:30:13.367Z,100.00
2023-05-05T18:32:39.981Z,100.00
2023-05-05T18:35:09.186Z,100.00
2023-05-05T18:37:35.814Z,100.00
2023-05-05T18:40:02.559Z,100.00
2023-05-05T18:42:29.137Z,100.00
2023-05-05T18:44:55.715Z,100.00
2023-05-05T18:47:22.259Z,100.00
2023-05-05T18:49:48.819Z,100.00
2023-05-05T18:52:16.794Z,100.00
2023-05-05T18:54:43.374Z,100.00
2023-05-05T18:57:10.002Z,100.00
2023-05-05T18:59:36.551Z,100.00
2023-05-05T19:02:03.086Z,100.00
2023-05-05T19:04:31.759Z,100.00
2023-05-05T19:06:58.632Z,100.00
2023-05-05T19:09:26.706Z,100.00
2023-05-05T19:11:53.279Z,100.00
2023-05-05T19:14:19.874Z,100.00
2023-05-05T19:16:46.668Z,100.00
2023-05-05T19:19:13.351Z,100.00
2023-05-05T19:21:39.948Z,100.00
2023-05-05T19:24:09.461Z,100.00
2023-05-05T19:26:37.396Z,100.00
2023-05-05T19:29:04.160Z,100.00
2023-05-05T19:31:31.158Z,100.00
2023-05-05T19:34:00.917Z,100.00
2023-05-05T19:36:28.132Z,100.00
2023-05-05T19:38:55.665Z,100.00
2023-05-05T19:41:22.439Z,100.00
2023-05-05T19:43:50.405Z,100.00
2023-05-05T19:46:17.274Z,100.00
2023-05-05T19:48:43.860Z,100.00
2023-05-05T19:51:10.440Z,100.00
2023-05-05T19:53:36.956Z,100.00
2023-05-05T19:56:03.960Z,100.00
2023-05-05T19:58:30.512Z,100.00
2023-05-05T20:00:58.467Z,100.00
2023-05-05T20:03:25.318Z,100.00
2023-05-05T20:05:51.853Z,100.00
2023-05-05T20:08:18.450Z,100.00
2023-05-05T20:10:45.015Z,100.00
2023-05-05T20:13:11.596Z,100.00
2023-05-05T20:15:38.423Z,100.00
2023-05-05T20:18:06.491Z,100.00
2023-05-05T20:20:33.269Z,100.00
2023-05-05T20:22:59.784Z,100.00
2023-05-05T20:25:26.742Z,100.00
2023-05-05T20:27:53.270Z,100.00
2023-05-05T20:30:19.875Z,100.00
2023-05-05T20:32:46.473Z,100.00
2023-05-05T20:35:14.466Z,100.00
2023-05-05T20:37:41.459Z,100.00
2023-05-05T20:40:09.445Z,100.00
2023-05-05T20:42:36.454Z,100.00
2023-05-05T20:45:03.376Z,100.00
2023-05-05T20:47:30.019Z,100.00
2023-05-05T20:49:56.652Z,100.00
2023-05-05T20:52:24.598Z,100.00
2023-05-05T20:54:51.150Z,100.00
2023-05-05T20:57:17.762Z,100.00
2023-05-05T20:59:44.376Z,100.00
2023-05-05T21:02:11.003Z,100.00
2023-05-05T21:04:37.832Z,100.00
2023-05-05T21:07:04.433Z,100.00
2023-05-05T21:09:32.575Z,100.00
2023-05-05T21:11:59.228Z,100.00
2023-05-05T21:14:25.921Z,100.00
2023-05-05T21:16:52.537Z,100.00
2023-05-05T21:19:27.933Z,100.00
2023-05-05T21:21:54.586Z,100.00
2023-05-05T21:24:21.124Z,100.00
2023-05-05T21:26:49.073Z,100.00
2023-05-05T21:29:15.663Z,100.00
2023-05-05T21:31:42.376Z,100.00
2023-05-05T21:34:09.130Z,100.00
2023-05-05T21:36:35.674Z,100.00
2023-05-05T21:39:02.328Z,100.00
2023-05-05T21:41:29.087Z,100.00
2023-05-05T21:43:57.873Z,100.00
2023-05-05T21:46:24.635Z,100.00
2023-05-05T21:48:51.226Z,100.00
2023-05-05T21:51:18.809Z,100.00
2023-05-05T21:53:45.471Z,100.00
2023-05-05T21:56:12.025Z,100.00
2023-05-05T21:58:40.494Z,100.00
2023-05-05T22:01:08.498Z,100.00
2023-05-05T22:03:36.308Z,100.00
2023-05-05T22:06:03.022Z,100.00
2023-05-05T22:08:29.558Z,100.00
2023-05-05T22:10:56.110Z,100.00
2023-05-05T22:13:22.720Z,100.00
2023-05-05T22:15:49.552Z,100.00
2023-05-05T22:18:17.621Z,100.00
2023-05-05T22:20:44.269Z,100.00
2023-05-05T22:23:10.978Z,100.00
2023-05-05T22:25:37.482Z,100.00
2023-05-05T22:28:04.583Z,100.00
2023-05-05T22:30:32.402Z,100.00
2023-05-05T22:32:59.025Z,100.00
2023-05-05T22:35:27.382Z,100.00
2023-05-05T22:37:54.071Z,100.00
2023-05-05T22:40:20.679Z,100.00
2023-05-05T22:42:47.262Z,100.00
2023-05-05T22:45:13.913Z,100.00
2023-05-05T22:47:40.651Z,100.00
2023-05-05T22:50:08.324Z,100.00
2023-05-05T22:52:36.363Z,100.00
2023-05-05T22:55:03.091Z,100.00
2023-05-05T22:57:31.786Z,100.00
2023-05-05T23:00:00.117Z,100.00
2023-05-05T23:02:27.091Z,100.00
2023-05-05T23:04:53.901Z,100.00
2023-05-05T23:07:20.471Z,100.00
2023-05-05T23:09:48.493Z,100.00
2023-05-05T23:12:15.155Z,100.00
2023-05-05T23:14:41.699Z,100.00
2023-05-05T23:17:08.234Z,100.00
2023-05-05T23:19:35.158Z,100.00
2023-05-05T23:22:01.988Z,100.00
2023-05-05T23:24:29.001Z,100.00
2023-05-05T23:26:59.046Z,100.00
2023-05-05T23:29:28.158Z,100.00
2023-05-05T23:31:54.776Z,100.00
2023-05-05T23:34:21.456Z,100.00
2023-05-05T23:36:48.097Z,100.00
2023-05-05T23:39:14.868Z,100.00
2023-05-05T23:41:41.452Z,100.00
2023-05-05T23:44:09.552Z,100.00
2023-05-05T23:46:36.540Z,100.00
2023-05-05T23:49:03.216Z,100.00
2023-05-05T23:51:29.842Z,100.00
2023-05-05T23:53:56.731Z,100.00
2023-05-05T23:56:23.465Z,100.00
2023-05-05T23:58:50.082Z,100.00
